Time;durP1;ratioP1;P1;durP2;ratioP2;P2;SDS_P1;SDS_P2;PMS_P1;PMS_P2;Temp;Humidity;BMP_temperature;BMP_pressure;BME280_temperature;BME280_humidity;BME280_pressure;Samples;Min_cycle;Max_cycle;Signal;HPM_P1;HPM_P2
2022/07/15 00:02:02;;;;;;;7.35;1.98;;;16.20;99.10;;;;;;5092572;28;20405;-55
2022/07/15 00:04:28;;;;;;;4.05;2.08;;;16.20;99.10;;;;;;5091851;28;20073;-53
2022/07/15 00:06:54;;;;;;;4.60;1.95;;;16.10;99.40;;;;;;5091809;28;20028;-57
2022/07/15 00:09:20;;;;;;;6.22;2.17;;;16.10;99.40;;;;;;5090768;28;20020;-54
2022/07/15 00:11:45;;;;;;;7.07;2.13;;;16.10;99.50;;;;;;5098641;28;20016;-54
2022/07/15 00:14:11;;;;;;;5.60;1.95;;;16.00;99.60;;;;;;5091674;28;20494;-50
2022/07/15 00:16:37;;;;;;;4.45;1.92;;;16.00;99.60;;;;;;5089759;28;20073;-46
2022/07/15 00:19:02;;;;;;;6.03;2.35;;;15.90;99.70;;;;;;5107205;28;20028;-48
2022/07/15 00:21:28;;;;;;;7.18;1.83;;;15.90;99.70;;;;;;5100760;28;20153;-52
2022/07/15 00:23:54;;;;;;;3.53;1.88;;;15.90;99.90;;;;;;5091570;28;20432;-54
2022/07/15 00:26:20;;;;;;;6.50;2.22;;;15.80;99.80;;;;;;5091457;28;20075;-57
2022/07/15 00:28:45;;;;;;;4.45;2.20;;;15.80;99.90;;;;;;5091663;28;20040;-57
2022/07/15 00:31:11;;;;;;;5.47;2.47;;;15.80;99.90;;;;;;5101484;28;20046;-57
2022/07/15 00:33:37;;;;;;;6.20;2.40;;;15.80;99.90;;;;;;5087774;28;20149;-47
2022/07/15 00:36:03;;;;;;;3.80;2.03;;;15.70;99.90;;;;;;5091576;28;20383;-43
2022/07/15 00:38:28;;;;;;;4.40;1.95;;;15.70;99.90;;;;;;5091249;28;20097;-40
2022/07/15 00:40:54;;;;;;;3.58;2.10;;;15.60;99.90;;;;;;5093306;28;20024;-55
2022/07/15 00:43:20;;;;;;;5.82;2.50;;;15.40;99.50;;;;;;5091272;28;20031;-47
2022/07/15 00:45:46;;;;;;;7.53;2.15;;;15.30;99.70;;;;;;5091246;28;20087;-41
2022/07/15 00:48:12;;;;;;;4.65;1.92;;;15.30;99.90;;;;;;5091088;28;20048;-59
2022/07/15 00:50:38;;;;;;;3.38;2.13;;;15.20;99.90;;;;;;5095091;28;20058;-48
2022/07/15 00:53:15;;;;;;;5.40;1.80;;;15.10;99.90;;;;;;5103599;28;20055;-56
2022/07/15 00:55:43;;;;;;;5.80;2.15;;;15.10;99.90;;;;;;5104142;28;20050;-40
2022/07/15 00:58:23;;;;;;;4.32;2.20;;;15.10;99.90;;;;;;5091066;28;20032;-41
2022/07/15 01:00:50;;;;;;;4.32;2.20;;;15.00;99.90;;;;;;5096946;28;20020;-55
2022/07/15 01:03:19;;;;;;;4.40;2.05;;;15.20;99.90;;;;;;5104007;28;20023;-45
2022/07/15 01:05:46;;;;;;;6.77;2.53;;;15.20;99.90;;;;;;5105370;28;20060;-41
2022/07/15 01:08:12;;;;;;;4.38;2.70;;;15.20;99.90;;;;;;5091130;28;20059;-60
2022/07/15 01:10:39;;;;;;;3.88;2.45;;;15.40;99.90;;;;;;5097994;28;20068;-56
2022/07/15 01:13:05;;;;;;;5.68;2.45;;;15.20;99.90;;;;;;5090872;28;20039;-51
2022/07/15 01:15:32;;;;;;;4.80;2.40;;;15.30;99.90;;;;;;5090967;28;20028;-51
2022/07/15 01:18:00;;;;;;;3.88;2.05;;;15.20;99.90;;;;;;5073175;28;20161;-47
2022/07/15 01:20:26;;;;;;;5.88;2.45;;;15.30;99.90;;;;;;5105827;28;20099;-52
2022/07/15 01:22:51;;;;;;;5.88;2.20;;;15.20;99.90;;;;;;5111509;28;20541;-61
2022/07/15 01:25:17;;;;;;;4.22;2.25;;;15.30;99.90;;;;;;5115315;28;20055;-56
2022/07/15 01:27:43;;;;;;;3.45;2.20;;;15.30;99.90;;;;;;5115155;28;20043;-58
2022/07/15 01:30:09;;;;;;;4.75;2.10;;;15.30;99.90;;;;;;5114940;28;20382;-55
2022/07/15 01:32:35;;;;;;;4.63;2.05;;;15.30;99.90;;;;;;5115124;28;20028;-55
2022/07/15 01:35:01;;;;;;;5.78;2.25;;;15.30;99.90;;;;;;5115467;28;20023;-57
2022/07/15 01:37:26;;;;;;;3.72;2.25;;;15.30;99.90;;;;;;5114928;28;20031;-53
2022/07/15 01:39:52;;;;;;;4.80;2.33;;;15.30;99.90;;;;;;5114809;28;20031;-46
2022/07/15 01:42:18;;;;;;;3.85;2.28;;;15.30;99.90;;;;;;5114671;28;20107;-54
2022/07/15 01:44:44;;;;;;;6.00;3.00;;;15.30;99.90;;;;;;5114843;28;20435;-46
2022/07/15 01:47:10;;;;;;;5.22;2.15;;;15.20;99.90;;;;;;5114291;28;20131;-58
2022/07/15 01:49:36;;;;;;;4.38;1.90;;;15.10;99.90;;;;;;5114682;28;20024;-44
2022/07/15 01:52:03;;;;;;;3.40;1.67;;;15.20;99.90;;;;;;5112177;28;20024;-54
2022/07/15 01:54:30;;;;;;;4.55;2.42;;;15.10;99.90;;;;;;5119474;27;20418;-53
2022/07/15 01:56:56;;;;;;;5.65;2.20;;;15.00;99.90;;;;;;5122371;27;20099;-54
2022/07/15 01:59:23;;;;;;;3.47;2.25;;;15.00;99.90;;;;;;5114505;28;20054;-46
2022/07/15 02:01:51;;;;;;;4.70;2.03;;;15.00;99.90;;;;;;5114192;28;20032;-43
2022/07/15 02:04:17;;;;;;;4.22;2.28;;;14.90;99.90;;;;;;5114573;28;20031;-42
2022/07/15 02:06:43;;;;;;;3.90;2.17;;;14.90;99.90;;;;;;5114719;28;20032;-54
2022/07/15 02:09:09;;;;;;;4.88;2.40;;;14.90;99.90;;;;;;5114394;28;20120;-56
2022/07/15 02:11:35;;;;;;;5.68;2.33;;;14.90;99.90;;;;;;5114161;28;20027;-56
2022/07/15 02:14:02;;;;;;;3.60;1.92;;;14.80;99.90;;;;;;5114341;28;20028;-51
2022/07/15 02:16:32;;;;;;;6.43;2.30;;;14.80;99.90;;;;;;5114082;28;20011;-49
2022/07/15 02:18:58;;;;;;;4.55;2.20;;;14.80;99.90;;;;;;5114143;28;20034;-47
2022/07/15 02:21:26;;;;;;;5.63;2.45;;;14.70;99.90;;;;;;5114174;28;20036;-46
2022/07/15 02:23:52;;;;;;;5.20;2.35;;;14.70;99.90;;;;;;5114002;28;20059;-48
2022/07/15 02:26:18;;;;;;;4.75;2.30;;;14.60;99.90;;;;;;5114048;28;20103;-51
2022/07/15 02:28:44;;;;;;;5.43;2.58;;;14.60;99.90;;;;;;5114064;28;20123;-50
2022/07/15 02:31:10;;;;;;;4.20;2.47;;;14.60;99.90;;;;;;5113259;28;20050;-55
2022/07/15 02:33:37;;;;;;;5.05;2.20;;;14.60;99.90;;;;;;5113824;28;20043;-50
2022/07/15 02:36:03;;;;;;;6.25;2.17;;;14.50;99.90;;;;;;5114088;28;20237;-54
2022/07/15 02:38:28;;;;;;;4.30;2.25;;;14.50;99.90;;;;;;5113662;28;20479;-46
2022/07/15 02:40:54;;;;;;;4.97;2.47;;;14.40;99.90;;;;;;5113579;28;20020;-58
2022/07/15 02:43:21;;;;;;;4.10;2.33;;;14.40;99.90;;;;;;5113489;28;20065;-59
2022/07/15 02:45:48;;;;;;;4.22;2.00;;;14.40;99.90;;;;;;5113289;28;20080;-59
2022/07/15 02:48:15;;;;;;;3.67;2.20;;;14.40;99.90;;;;;;5113423;28;20054;-51
2022/07/15 02:50:41;;;;;;;4.53;3.20;;;14.30;99.90;;;;;;5113735;28;20019;-54
2022/07/15 02:53:07;;;;;;;4.57;2.20;;;14.30;99.90;;;;;;5113712;28;20027;-47
2022/07/15 02:55:33;;;;;;;4.88;2.08;;;14.30;99.90;;;;;;5113443;28;20027;-52
2022/07/15 02:57:59;;;;;;;4.00;2.42;;;14.20;99.90;;;;;;5113579;28;20027;-44
2022/07/15 03:00:25;;;;;;;5.00;2.00;;;14.20;99.90;;;;;;5113742;28;20027;-50
2022/07/15 03:02:52;;;;;;;3.25;1.85;;;14.20;99.90;;;;;;5099271;28;20023;-51
2022/07/15 03:05:18;;;;;;;4.93;2.30;;;14.20;99.90;;;;;;5113497;28;20069;-42
2022/07/15 03:07:45;;;;;;;5.63;1.98;;;14.10;99.90;;;;;;5112812;28;20031;-54
2022/07/15 03:10:11;;;;;;;4.63;2.40;;;14.10;99.90;;;;;;5113509;28;20519;-55
2022/07/15 03:12:36;;;;;;;2.65;1.80;;;14.00;99.90;;;;;;5113119;28;20032;-57
2022/07/15 03:15:04;;;;;;;4.53;2.50;;;14.00;99.90;;;;;;5113265;28;20057;-53
2022/07/15 03:17:29;;;;;;;4.55;2.30;;;13.90;99.90;;;;;;5113254;28;20027;-52
2022/07/15 03:19:55;;;;;;;3.90;2.22;;;13.90;99.90;;;;;;5113103;28;20046;-55
2022/07/15 03:22:25;;;;;;;4.70;2.50;;;13.90;99.90;;;;;;5113238;28;20042;-55
2022/07/15 03:24:52;;;;;;;3.75;2.00;;;13.80;99.90;;;;;;5112973;28;20099;-52
2022/07/15 03:27:17;;;;;;;4.78;2.40;;;13.80;99.90;;;;;;5112568;28;20520;-56
2022/07/15 03:29:43;;;;;;;3.97;2.33;;;13.80;99.90;;;;;;5112317;28;20055;-54
2022/07/15 03:32:15;;;;;;;7.40;2.70;;;13.80;99.90;;;;;;5112991;28;20103;-58
2022/07/15 03:34:41;;;;;;;4.95;2.70;;;13.80;99.90;;;;;;5112770;28;20019;-46
2022/07/15 03:37:07;;;;;;;4.63;2.55;;;13.70;99.90;;;;;;5112796;28;20032;-57
2022/07/15 03:39:33;;;;;;;6.40;2.70;;;13.70;99.90;;;;;;5112644;28;20039;-55
2022/07/15 03:41:58;;;;;;;4.05;2.50;;;13.70;99.90;;;;;;5112576;28;20164;-48
2022/07/15 03:44:24;;;;;;;6.15;2.40;;;13.70;99.90;;;;;;5112637;28;20042;-54
2022/07/15 03:46:50;;;;;;;4.00;2.30;;;13.70;99.90;;;;;;5112457;28;20043;-57
2022/07/15 03:49:16;;;;;;;4.88;2.25;;;13.70;99.90;;;;;;5112486;28;20483;-48
2022/07/15 03:51:42;;;;;;;4.68;2.30;;;13.60;99.90;;;;;;5112583;28;20779;-52
2022/07/15 03:54:08;;;;;;;6.90;2.60;;;13.60;99.90;;;;;;5111724;28;20035;-51
2022/07/15 03:56:34;;;;;;;6.30;2.20;;;13.60;99.90;;;;;;5110504;28;20020;-54
2022/07/15 03:59:00;;;;;;;3.72;2.42;;;13.60;99.90;;;;;;5112829;27;20027;-47
2022/07/15 04:01:26;;;;;;;5.82;2.97;;;13.50;99.90;;;;;;5111836;27;20107;-58
2022/07/15 04:03:52;;;;;;;4.47;2.42;;;13.40;99.90;;;;;;5111225;27;20094;-51
2022/07/15 04:06:19;;;;;;;3.67;2.28;;;13.30;99.90;;;;;;5115262;27;20043;-44
2022/07/15 04:08:46;;;;;;;4.60;2.40;;;13.30;99.90;;;;;;5112588;27;20525;-55
2022/07/15 04:11:14;;;;;;;4.38;2.70;;;13.30;99.90;;;;;;5115208;27;20023;-59
2022/07/15 04:13:40;;;;;;;4.65;2.45;;;13.40;99.90;;;;;;5113947;27;20028;-62
2022/07/15 04:16:07;;;;;;;6.82;2.35;;;13.40;99.90;;;;;;5115245;27;20102;-58
2022/07/15 04:18:33;;;;;;;5.03;2.55;;;13.40;99.90;;;;;;5113816;28;20019;-59
2022/07/15 04:20:59;;;;;;;5.40;2.50;;;13.40;99.90;;;;;;5114757;27;20462;-52
2022/07/15 04:23:25;;;;;;;5.97;2.40;;;13.50;99.90;;;;;;5113649;27;20015;-45
2022/07/15 04:25:52;;;;;;;5.50;2.20;;;13.50;99.90;;;;;;5113241;27;20364;-52
2022/07/15 04:28:19;;;;;;;4.55;2.30;;;13.40;99.90;;;;;;5112145;27;20034;-51
2022/07/15 04:30:44;;;;;;;4.43;2.38;;;13.40;99.90;;;;;;5110270;28;20080;-55
2022/07/15 04:33:10;;;;;;;3.75;2.35;;;13.50;99.90;;;;;;5111848;28;20103;-51
2022/07/15 04:35:37;;;;;;;5.45;2.58;;;13.50;99.90;;;;;;5110565;28;20036;-54
2022/07/15 04:38:02;;;;;;;3.70;2.40;;;13.50;99.90;;;;;;5107518;28;20141;-55
2022/07/15 04:40:28;;;;;;;8.63;3.22;;;13.50;99.90;;;;;;5111767;27;20106;-48
2022/07/15 04:42:54;;;;;;;3.80;2.22;;;13.50;99.90;;;;;;5116943;27;20024;-61
2022/07/15 04:45:19;;;;;;;4.20;2.30;;;13.50;99.90;;;;;;5117066;27;20055;-48
2022/07/15 04:47:45;;;;;;;5.72;2.90;;;13.60;99.90;;;;;;5120007;27;20047;-51
2022/07/15 04:52:55;;;;;;;4.13;2.38;;;13.70;99.90;;;;;;5116471;27;20026;-52
2022/07/15 04:55:21;;;;;;;4.47;2.33;;;13.70;99.90;;;;;;5116599;27;20019;-54
2022/07/15 04:57:46;;;;;;;4.47;2.75;;;13.80;99.90;;;;;;5117545;27;20098;-50
2022/07/15 05:00:12;;;;;;;6.70;2.38;;;13.80;99.90;;;;;;5111151;28;20103;-42
2022/07/15 05:02:38;;;;;;;5.07;2.50;;;13.80;99.90;;;;;;5118825;28;20050;-51
2022/07/15 05:05:06;;;;;;;4.70;2.20;;;13.80;99.90;;;;;;5115586;28;20481;-46
2022/07/15 05:07:32;;;;;;;3.53;2.10;;;13.80;99.90;;;;;;5117315;28;20169;-53
2022/07/15 05:09:58;;;;;;;4.88;2.47;;;13.70;99.90;;;;;;5117387;28;20111;-53
2022/07/15 05:12:23;;;;;;;4.18;2.55;;;13.60;99.90;;;;;;5115214;28;20474;-51
2022/07/15 05:14:49;;;;;;;3.40;2.17;;;13.60;99.90;;;;;;5121197;28;20153;-41
2022/07/15 05:17:15;;;;;;;4.80;2.30;;;13.70;99.90;;;;;;5116711;28;20023;-42
2022/07/15 05:19:40;;;;;;;4.97;2.35;;;13.80;99.90;;;;;;5121212;28;20031;-41
2022/07/15 05:22:06;;;;;;;5.13;2.20;;;13.90;99.90;;;;;;5117344;28;20412;-46
2022/07/15 05:24:32;;;;;;;3.95;2.47;;;14.00;99.90;;;;;;5119099;28;20497;-47
2022/07/15 05:26:58;;;;;;;6.00;2.53;;;14.10;99.90;;;;;;5118909;28;20012;-47
2022/07/15 05:29:24;;;;;;;3.78;2.40;;;14.20;99.90;;;;;;5116980;28;20035;-56
2022/07/15 05:31:50;;;;;;;4.72;2.30;;;14.40;99.90;;;;;;5114305;28;20026;-43
2022/07/15 05:34:16;;;;;;;4.43;2.22;;;14.60;99.90;;;;;;5110948;28;20036;-57
2022/07/15 05:36:42;;;;;;;5.35;2.15;;;14.70;99.90;;;;;;5110773;28;20023;-50
2022/07/15 05:39:08;;;;;;;3.15;2.20;;;14.90;99.90;;;;;;5111070;28;20028;-46
2022/07/15 05:41:34;;;;;;;5.47;2.10;;;15.10;99.50;;;;;;5111063;28;20032;-41
2022/07/15 05:44:00;;;;;;;4.53;2.30;;;15.30;99.50;;;;;;5110860;28;20506;-49
2022/07/15 05:46:26;;;;;;;3.20;2.30;;;15.50;99.20;;;;;;5110973;28;20016;-49
2022/07/15 05:48:52;;;;;;;3.67;2.42;;;15.70;99.20;;;;;;5110560;28;20399;-55
2022/07/15 05:51:18;;;;;;;4.05;2.38;;;15.90;98.90;;;;;;5110884;28;20395;-43
2022/07/15 05:53:44;;;;;;;3.85;2.47;;;16.20;98.50;;;;;;5110926;28;20042;-50
2022/07/15 05:56:10;;;;;;;6.60;2.92;;;16.70;98.20;;;;;;5110658;28;20019;-54
2022/07/15 05:58:36;;;;;;;4.00;2.03;;;17.40;97.30;;;;;;5109413;28;20028;-48
2022/07/15 06:01:02;;;;;;;3.92;2.10;;;18.40;94.70;;;;;;5112506;28;20031;-47
2022/07/15 06:03:27;;;;;;;4.78;2.08;;;19.50;93.00;;;;;;5106928;28;20024;-59
2022/07/15 06:05:53;;;;;;;4.63;2.00;;;20.70;91.00;;;;;;5118929;28;20016;-56
2022/07/15 06:08:19;;;;;;;3.63;1.80;;;21.50;88.40;;;;;;5120965;27;20028;-59
2022/07/15 06:10:45;;;;;;;4.47;1.90;;;22.00;86.20;;;;;;5120580;27;20016;-47
2022/07/15 06:13:11;;;;;;;3.13;1.70;;;22.60;83.50;;;;;;5123639;27;20058;-59
2022/07/15 06:15:38;;;;;;;3.10;1.63;;;23.30;82.10;;;;;;5119683;27;20024;-53
2022/07/15 06:18:04;;;;;;;4.05;2.00;;;24.10;80.20;;;;;;5124629;27;20534;-50
2022/07/15 06:20:30;;;;;;;3.95;1.85;;;24.90;77.10;;;;;;5119605;27;20020;-48
2022/07/15 06:22:56;;;;;;;4.28;1.60;;;25.60;73.80;;;;;;5122776;27;20090;-51
2022/07/15 06:25:21;;;;;;;3.50;1.70;;;26.10;71.10;;;;;;5121204;27;20027;-45
2022/07/15 06:27:47;;;;;;;3.75;1.75;;;26.60;71.60;;;;;;5120266;27;20032;-47
2022/07/15 06:30:13;;;;;;;3.13;1.60;;;27.10;69.30;;;;;;5121959;27;20020;-53
2022/07/15 06:32:39;;;;;;;4.93;1.70;;;27.60;66.10;;;;;;5114027;28;20031;-42
2022/07/15 06:35:06;;;;;;;3.70;1.60;;;28.10;63.10;;;;;;5114119;28;20024;-49
2022/07/15 06:37:32;;;;;;;8.05;1.80;;;28.30;62.70;;;;;;5114217;28;20019;-57
2022/07/15 06:39:57;;;;;;;5.82;1.77;;;28.60;59.20;;;;;;5114292;28;20039;-48
2022/07/15 06:42:23;;;;;;;2.30;1.42;;;28.90;59.40;;;;;;5113663;28;20028;-51
2022/07/15 06:44:49;;;;;;;3.15;1.50;;;29.10;58.80;;;;;;5113961;28;20049;-55
2022/07/15 06:47:14;;;;;;;3.80;1.42;;;29.10;58.70;;;;;;5115308;27;20054;-45
2022/07/15 06:49:40;;;;;;;4.45;2.08;;;29.20;56.70;;;;;;5116408;27;20028;-49
2022/07/15 06:52:06;;;;;;;2.53;1.33;;;29.10;55.60;;;;;;5117364;27;20355;-44
2022/07/15 06:54:33;;;;;;;4.18;1.58;;;29.30;55.50;;;;;;5116441;27;20012;-51
2022/07/15 06:56:59;;;;;;;3.00;1.70;;;29.60;54.10;;;;;;5115489;27;20036;-50
2022/07/15 06:59:25;;;;;;;5.95;1.50;;;29.80;53.20;;;;;;5115932;27;20028;-56
2022/07/15 07:01:52;;;;;;;3.17;1.38;;;29.60;51.80;;;;;;5115557;27;20050;-52
2022/07/15 07:04:17;;;;;;;4.53;1.42;;;29.00;52.90;;;;;;5117763;27;20015;-41
2022/07/15 07:06:44;;;;;;;3.38;1.35;;;28.20;53.10;;;;;;5115663;27;20020;-47
2022/07/15 07:09:09;;;;;;;3.03;1.40;;;27.90;55.50;;;;;;5099458;27;20039;-52
2022/07/15 07:11:35;;;;;;;3.67;1.60;;;28.10;55.60;;;;;;5097236;28;20630;-45
2022/07/15 07:14:01;;;;;;;3.80;1.20;;;28.00;55.70;;;;;;5115649;27;20028;-52
2022/07/15 07:16:26;;;;;;;2.65;1.20;;;28.40;55.10;;;;;;5115408;27;20023;-51
2022/07/15 07:18:52;;;;;;;3.10;1.38;;;28.20;51.70;;;;;;5115122;27;20019;-42
2022/07/15 07:21:19;;;;;;;2.78;1.20;;;28.30;53.10;;;;;;5117483;27;20402;-54
2022/07/15 07:23:45;;;;;;;2.67;1.52;;;28.60;53.50;;;;;;5115482;27;20031;-42
2022/07/15 07:26:12;;;;;;;2.53;1.20;;;28.70;51.60;;;;;;5116946;27;20028;-54
2022/07/15 07:28:41;;;;;;;3.47;1.23;;;28.60;50.40;;;;;;5102669;27;20062;-48
2022/07/15 07:31:11;;;;;;;4.18;1.80;;;28.10;50.00;;;;;;5112652;27;20022;-44
2022/07/15 07:33:37;;;;;;;2.58;1.40;;;27.70;52.70;;;;;;5114249;27;20378;-46
2022/07/15 07:36:04;;;;;;;3.90;1.30;;;27.40;52.60;;;;;;5112985;27;20174;-55
2022/07/15 07:38:32;;;;;;;4.97;1.08;;;27.00;55.10;;;;;;5113811;27;20502;-51
2022/07/15 07:40:57;;;;;;;2.70;1.20;;;26.60;54.00;;;;;;5114740;27;20112;-57
2022/07/15 07:43:23;;;;;;;3.90;1.42;;;26.10;54.70;;;;;;5112090;28;20062;-51
2022/07/15 07:45:50;;;;;;;5.38;1.60;;;25.90;56.00;;;;;;5120815;27;20030;-43
2022/07/15 07:48:18;;;;;;;4.35;1.20;;;26.00;56.00;;;;;;5128169;27;20051;-59
2022/07/15 07:50:44;;;;;;;3.55;1.23;;;26.10;54.90;;;;;;5119381;27;20120;-48
2022/07/15 07:53:10;;;;;;;2.72;1.13;;;25.80;55.30;;;;;;5130015;27;20517;-48
2022/07/15 07:55:38;;;;;;;5.03;1.40;;;25.50;59.70;;;;;;5116356;27;20153;-54
2022/07/15 07:58:04;;;;;;;3.72;1.40;;;25.20;59.60;;;;;;5118428;27;20054;-53
2022/07/15 08:00:30;;;;;;;3.67;1.30;;;24.90;59.10;;;;;;5113625;27;20128;-46
2022/07/15 08:02:59;;;;;;;3.58;1.10;;;24.70;57.80;;;;;;5126937;27;20019;-59
2022/07/15 08:05:25;;;;;;;4.55;1.52;;;24.50;61.80;;;;;;5121927;27;20080;-58
2022/07/15 08:08:04;;;;;;;5.40;1.50;;;24.80;60.00;;;;;;5120374;27;20036;-59
2022/07/15 08:10:30;;;;;;;;;;;24.90;62.60;;;;;;5113516;28;20069;-58
2022/07/15 08:12:56;;;;;;;2.90;1.25;;;25.10;59.90;;;;;;5112556;27;19911;-54
2022/07/15 08:15:22;;;;;;;1.85;1.00;;;25.30;57.80;;;;;;5112099;27;20034;-55
2022/07/15 08:17:47;;;;;;;3.63;1.15;;;25.50;61.60;;;;;;5112317;28;20027;-49
2022/07/15 08:20:13;;;;;;;4.43;1.30;;;25.50;58.70;;;;;;5112364;27;20039;-49
2022/07/15 08:22:39;;;;;;;2.80;1.10;;;25.90;60.50;;;;;;5112683;27;20028;-52
2022/07/15 08:25:06;;;;;;;4.35;1.20;;;26.40;59.00;;;;;;5112547;27;20028;-45
2022/07/15 08:27:31;;;;;;;4.20;1.38;;;26.70;55.70;;;;;;5112612;27;20375;-43
2022/07/15 08:29:57;;;;;;;2.50;1.13;;;26.70;57.30;;;;;;5112880;27;20064;-50
2022/07/15 08:32:24;;;;;;;5.45;1.50;;;26.90;56.90;;;;;;5111882;28;20095;-44
2022/07/15 08:34:50;;;;;;;2.78;1.23;;;27.40;58.70;;;;;;5111694;28;20032;-44
2022/07/15 08:37:16;;;;;;;2.47;1.23;;;28.00;52.00;;;;;;5111294;28;20020;-52
2022/07/15 08:39:42;;;;;;;3.85;1.15;;;28.40;52.10;;;;;;5111219;28;20454;-49
2022/07/15 08:42:07;;;;;;;3.70;1.17;;;28.60;52.60;;;;;;5111252;28;20015;-55
2022/07/15 08:44:35;;;;;;;3.00;1.15;;;28.90;53.40;;;;;;5109497;28;20028;-58
2022/07/15 08:47:03;;;;;;;4.05;1.75;;;29.10;49.10;;;;;;5111461;28;20030;-42
2022/07/15 08:49:30;;;;;;;3.37;1.10;;;28.50;50.90;;;;;;5110825;28;20059;-57
2022/07/15 08:52:00;;;;;;;4.88;1.90;;;28.70;50.80;;;;;;5111558;28;20346;-49
2022/07/15 08:54:27;;;;;;;3.50;1.30;;;28.70;48.20;;;;;;5111489;28;20020;-42
2022/07/15 08:56:52;;;;;;;4.07;1.10;;;29.00;50.60;;;;;;5111331;28;20541;-50
2022/07/15 08:59:18;;;;;;;3.40;1.65;;;28.80;47.60;;;;;;5105932;28;20107;-50
2022/07/15 09:01:46;;;;;;;2.30;1.00;;;28.90;49.60;;;;;;5115079;28;20027;-59
2022/07/15 09:04:12;;;;;;;5.63;1.42;;;29.30;48.40;;;;;;5119723;28;20397;-61
2022/07/15 09:06:43;;;;;;;2.55;1.35;;;29.60;47.60;;;;;;5122352;28;20023;-55
2022/07/15 09:09:29;;;;;;;3.95;1.05;;;29.80;45.40;;;;;;5121235;28;20040;-58
2022/07/15 09:11:58;;;;;;;4.68;1.20;;;30.10;44.80;;;;;;5112684;28;20111;-59
2022/07/15 09:14:28;;;;;;;2.50;0.80;;;30.00;43.30;;;;;;5114505;28;20064;-57
2022/07/15 09:17:09;;;;;;;4.68;1.15;;;30.10;43.00;;;;;;5111351;28;20040;-42
2022/07/15 09:20:00;;;;;;;3.88;1.00;;;30.30;42.20;;;;;;5110648;28;20033;-54
2022/07/15 09:22:28;;;;;;;2.10;0.80;;;30.50;43.90;;;;;;5109730;28;20019;-54
2022/07/15 09:25:08;;;;;;;2.77;1.00;;;30.70;41.00;;;;;;5111873;28;20547;-57
2022/07/15 09:27:39;;;;;;;2.22;0.88;;;30.80;40.50;;;;;;5123842;28;20259;-47
2022/07/15 09:33:34;;;;;;;2.75;0.80;;;30.50;41.50;;;;;;5111467;28;20130;-50
2022/07/15 09:36:08;;;;;;;2.08;0.90;;;30.70;42.40;;;;;;5092520;28;20031;-49
2022/07/15 09:38:45;;;;;;;2.58;0.90;;;30.30;39.20;;;;;;5093118;28;20483;-52
2022/07/15 09:41:27;;;;;;;1.45;0.63;;;30.30;41.90;;;;;;5112278;28;20114;-53
2022/07/15 09:43:59;;;;;;;3.15;0.90;;;30.90;42.40;;;;;;5114995;28;20027;-58
2022/07/15 09:46:28;;;;;;;4.40;1.10;;;30.70;39.10;;;;;;5114702;28;20024;-57
2022/07/15 09:48:55;;;;;;;2.35;0.80;;;30.50;42.60;;;;;;5114852;28;20051;-51
2022/07/15 09:51:22;;;;;;;5.85;0.90;;;30.70;40.80;;;;;;5114350;28;20073;-46
2022/07/15 09:53:48;;;;;;;2.13;0.80;;;30.70;40.60;;;;;;5123007;27;20106;-44
2022/07/15 09:56:21;;;;;;;1.45;0.50;;;30.90;39.00;;;;;;5120430;27;20406;-50
2022/07/15 09:58:46;;;;;;;1.17;0.60;;;31.30;37.20;;;;;;5118140;27;20035;-50
2022/07/15 10:01:13;;;;;;;2.45;0.65;;;31.40;39.30;;;;;;5127497;27;20015;-46
2022/07/15 10:03:39;;;;;;;3.17;0.80;;;31.40;39.40;;;;;;5113463;27;20064;-45
2022/07/15 10:06:06;;;;;;;3.90;0.82;;;31.50;37.80;;;;;;5125877;27;20038;-50
2022/07/15 10:08:33;;;;;;;1.13;0.60;;;31.60;38.30;;;;;;5122714;27;20077;-46
2022/07/15 10:11:00;;;;;;;2.78;0.70;;;31.60;34.30;;;;;;5123940;27;20012;-49
2022/07/15 10:13:53;;;;;;;1.48;0.50;;;31.60;37.70;;;;;;5123929;27;20482;-51
2022/07/15 10:16:21;;;;;;;2.35;0.70;;;31.50;34.40;;;;;;5119444;27;20393;-47
2022/07/15 10:19:14;;;;;;;0.73;0.57;;;31.30;35.60;;;;;;5114239;27;20047;-50
2022/07/15 10:22:14;;;;;;;1.00;0.60;;;31.30;36.30;;;;;;5117946;27;20520;-52
2022/07/15 10:24:45;;;;;;;2.88;0.60;;;31.60;38.30;;;;;;5119054;27;20447;-57
2022/07/15 10:27:49;;;;;;;1.73;0.60;;;32.10;35.50;;;;;;5120328;27;20023;-52
2022/07/15 10:30:21;;;;;;;1.45;0.60;;;31.90;33.00;;;;;;5095353;27;20055;-49
2022/07/15 10:33:17;;;;;;;1.50;0.60;;;32.00;35.40;;;;;;5114387;28;20015;-54
2022/07/15 10:35:52;;;;;;;2.47;0.75;;;32.10;35.40;;;;;;5103962;28;20367;-44
2022/07/15 10:38:36;;;;;;;2.85;0.70;;;31.90;34.10;;;;;;5114106;28;20019;-52
2022/07/15 10:41:09;;;;;;;1.88;0.70;;;31.60;33.20;;;;;;5102524;28;20066;-46
2022/07/15 10:43:46;;;;;;;2.42;0.75;;;31.60;34.80;;;;;;5113902;28;20037;-43
2022/07/15 10:46:18;;;;;;;2.35;0.80;;;32.00;32.90;;;;;;5113750;28;20019;-40
2022/07/15 10:49:04;;;;;;;3.08;0.70;;;31.80;33.60;;;;;;5113466;28;20394;-40
2022/07/15 10:51:36;;;;;;;2.70;0.88;;;31.70;33.20;;;;;;5112860;28;20023;-40
2022/07/15 10:54:06;;;;;;;0.93;0.63;;;31.80;36.90;;;;;;5111059;28;20031;-42
2022/07/15 10:56:34;;;;;;;1.48;0.70;;;31.40;32.20;;;;;;5111964;28;20390;-42
2022/07/15 10:59:09;;;;;;;1.30;0.52;;;31.20;34.90;;;;;;5111057;27;20030;-49
2022/07/15 11:01:37;;;;;;;2.25;0.90;;;31.00;33.40;;;;;;5111834;27;20024;-52
2022/07/15 11:04:11;;;;;;;1.70;0.90;;;30.60;31.70;;;;;;5119608;27;20030;-53
2022/07/15 11:07:01;;;;;;;1.80;0.70;;;30.40;34.00;;;;;;5117705;27;20023;-46
2022/07/15 11:09:52;;;;;;;1.55;0.80;;;30.40;35.50;;;;;;5122202;27;20031;-44
2022/07/15 11:12:43;;;;;;;2.45;0.82;;;30.70;35.50;;;;;;5117759;27;20070;-58
2022/07/15 11:15:27;;;;;;;1.80;0.80;;;30.90;35.90;;;;;;5113960;27;20024;-50
2022/07/15 11:17:56;;;;;;;3.70;0.70;;;30.80;35.40;;;;;;5114758;27;20478;-55
2022/07/15 11:20:30;;;;;;;1.52;0.70;;;31.10;33.80;;;;;;5114125;27;20027;-56
2022/07/15 11:22:58;;;;;;;1.77;0.70;;;31.00;33.50;;;;;;5096385;27;20024;-44
2022/07/15 11:25:25;;;;;;;1.85;0.77;;;30.80;32.60;;;;;;5113916;27;20088;-54
2022/07/15 11:28:11;;;;;;;1.70;0.60;;;30.40;36.80;;;;;;5117066;27;20023;-55
2022/07/15 11:30:40;;;;;;;1.60;0.60;;;30.10;33.60;;;;;;5120613;27;20019;-50
2022/07/15 11:33:10;;;;;;;1.13;0.60;;;29.90;35.40;;;;;;5113080;28;20068;-59
2022/07/15 11:35:49;;;;;;;1.48;0.68;;;30.10;37.30;;;;;;5112797;28;20057;-56
2022/07/15 11:38:15;;;;;;;3.83;0.65;;;30.30;34.50;;;;;;5112253;28;20035;-58
2022/07/15 11:46:17;;;;;;;1.48;0.65;;;30.70;35.10;;;;;;5112607;28;20026;-52
2022/07/15 11:48:42;;;;;;;0.75;0.60;;;31.20;32.80;;;;;;5112241;28;20052;-48
2022/07/15 11:51:10;;;;;;;1.90;0.70;;;30.90;33.70;;;;;;5112644;28;20024;-53
2022/07/15 11:53:44;;;;;;;2.28;0.70;;;30.60;33.20;;;;;;5112612;28;20031;-44
2022/07/15 11:56:12;;;;;;;1.52;0.70;;;29.40;32.70;;;;;;5097785;27;20436;-50
2022/07/15 11:58:42;;;;;;;2.72;0.82;;;29.40;35.20;;;;;;5123794;27;20355;-49
2022/07/15 12:01:13;;;;;;;3.28;0.80;;;29.20;33.70;;;;;;5126015;27;20102;-49
2022/07/15 12:03:48;;;;;;;0.73;0.60;;;29.40;37.00;;;;;;5123546;27;20027;-45
2022/07/15 12:06:17;;;;;;;3.42;0.90;;;29.70;35.70;;;;;;5127166;27;20382;-48
2022/07/15 12:08:43;;;;;;;1.08;0.60;;;30.10;35.50;;;;;;5125301;27;20123;-44
2022/07/15 12:11:11;;;;;;;0.98;0.60;;;30.10;34.80;;;;;;5124920;27;20461;-43
2022/07/15 12:13:49;;;;;;;1.20;0.70;;;30.20;34.10;;;;;;5125501;27;20049;-45
2022/07/15 12:16:18;;;;;;;;;;;30.00;33.90;;;;;;5124795;27;20027;-46
2022/07/15 12:18:43;;;;;;;1.50;0.73;;;29.70;35.60;;;;;;5125244;27;19907;-49
2022/07/15 12:21:09;;;;;;;1.25;0.70;;;29.10;34.80;;;;;;5124320;27;20543;-47
2022/07/15 12:23:35;;;;;;;1.92;0.90;;;28.50;37.80;;;;;;5127746;27;20019;-44
2022/07/15 12:26:11;;;;;;;1.42;0.70;;;28.40;37.00;;;;;;5098382;27;20023;-48
2022/07/15 12:28:37;;;;;;;1.13;0.70;;;28.80;38.80;;;;;;5115989;27;20059;-46
2022/07/15 12:31:04;;;;;;;1.27;0.73;;;29.20;36.50;;;;;;5114305;27;20113;-45
2022/07/15 12:33:35;;;;;;;3.22;0.90;;;29.30;35.70;;;;;;5111789;28;20023;-47
2022/07/15 12:36:16;;;;;;;1.55;0.95;;;29.70;36.80;;;;;;5110776;28;20405;-47
2022/07/15 12:38:42;;;;;;;2.17;0.80;;;29.90;33.90;;;;;;5101928;27;20035;-49
2022/07/15 12:41:30;;;;;;;1.33;0.85;;;30.00;36.50;;;;;;5121152;27;20023;-50
2022/07/15 12:43:58;;;;;;;1.90;0.90;;;29.80;33.90;;;;;;5125151;27;20110;-56
2022/07/15 12:46:50;;;;;;;1.73;0.98;;;30.10;33.30;;;;;;5129401;27;20080;-49
2022/07/15 12:49:50;;;;;;;1.45;0.70;;;30.00;36.20;;;;;;5106146;27;20054;-52
2022/07/15 12:52:25;;;;;;;1.00;0.70;;;30.10;35.90;;;;;;5126529;27;20072;-56
2022/07/15 12:54:54;;;;;;;3.90;0.75;;;30.00;35.30;;;;;;5125146;27;20027;-45
2022/07/15 12:57:29;;;;;;;1.70;0.80;;;29.70;33.90;;;;;;5125714;27;20505;-51
2022/07/15 12:59:56;;;;;;;1.38;0.80;;;29.50;35.40;;;;;;5123796;27;20019;-53
2022/07/15 13:02:23;;;;;;;2.05;0.80;;;29.20;35.20;;;;;;5113128;28;20510;-52
2022/07/15 13:04:49;;;;;;;1.20;0.80;;;29.00;38.20;;;;;;5119759;28;20027;-54
2022/07/15 13:07:17;;;;;;;1.88;0.80;;;29.20;35.60;;;;;;5124461;28;20035;-44